TimeEST,TemperatureF,Dew PointF,Humidity,Sea Level PressureIn,VisibilityMPH,Wind Direction,Wind SpeedMPH,Gust SpeedMPH,PrecipitationIn,Events,Conditions,WindDirDegrees,DateUTC
12:54 AM,19.0,10.0,68,30.04,10.0,West,3.5,-,N/A,,Overcast,270,2013-02-03 05:54:00
1:54 AM,19.0,9.0,65,30.03,10.0,Calm,Calm,-,N/A,,Overcast,0,2013-02-03 06:54:00
2:54 AM,19.0,6.1,57,30.02,10.0,Calm,Calm,-,N/A,,Overcast,0,2013-02-03 07:54:00
3:54 AM,18.0,7.0,62,30.00,10.0,Calm,Calm,-,N/A,,Overcast,0,2013-02-03 08:54:00
5:54 AM,14.0,7.0,74,29.99,10.0,Calm,Calm,-,N/A,,Scattered Clouds,0,2013-02-03 10:54:00
7:54 AM,10.0,6.1,84,30.00,10.0,Calm,Calm,-,N/A,,Clear,0,2013-02-03 12:54:00
8:54 AM,14.0,7.0,74,30.00,10.0,Calm,Calm,-,N/A,,Clear,0,2013-02-03 13:54:00
9:54 AM,17.1,8.1,68,29.99,10.0,Calm,Calm,-,N/A,,Partly Cloudy,0,2013-02-03 14:54:00
10:54 AM,19.9,9.0,62,29.96,10.0,Calm,Calm,-,N/A,,Clear,0,2013-02-03 15:54:00
11:54 AM,23.0,10.9,60,29.91,10.0,Calm,Calm,-,N/A,,Scattered Clouds,0,2013-02-03 16:54:00
12:54 PM,24.1,10.0,55,29.87,10.0,Calm,Calm,-,N/A,,Mostly Cloudy,0,2013-02-03 17:54:00
1:54 PM,27.0,9.0,47,29.82,10.0,Variable,3.5,-,N/A,,Scattered Clouds,0,2013-02-03 18:54:00
2:54 PM,27.0,8.1,45,29.81,10.0,Variable,3.5,-,N/A,,Mostly Cloudy,0,2013-02-03 19:54:00
3:54 PM,26.1,7.0,44,29.80,10.0,Calm,Calm,-,N/A,,Mostly Cloudy,0,2013-02-03 20:54:00
4:54 PM,26.1,7.0,44,29.79,10.0,Calm,Calm,-,N/A,,Mostly Cloudy,0,2013-02-03 21:54:00
5:54 PM,23.0,9.0,55,29.78,10.0,NNW,3.5,-,N/A,,Mostly Cloudy,330,2013-02-03 22:54:00
6:54 PM,21.9,10.0,60,29.78,10.0,Calm,Calm,-,N/A,,Overcast,0,2013-02-03 23:54:00
7:54 PM,21.0,10.0,63,29.79,10.0,Calm,Calm,-,N/A,,Overcast,0,2013-02-04 00:54:00
8:54 PM,19.9,12.0,71,29.79,10.0,Calm,Calm,-,N/A,,Overcast,0,2013-02-04 01:54:00
9:54 PM,19.9,10.9,68,29.77,10.0,Calm,Calm,-,N/A,,Overcast,0,2013-02-04 02:54:00
10:54 PM,19.9,10.9,68,29.75,10.0,Calm,Calm,-,N/A,,Mostly Cloudy,0,2013-02-04 03:54:00
11:54 PM,19.9,8.1,60,29.75,10.0,West,3.5,-,N/A,,Mostly Cloudy,270,2013-02-04 04:54:00